Gambell, AK

7:55 PM AKST on February 06, 2016 (GMT -0900)
Gambell

Weather History for PAGM - June, 2013

Change the Weather History Date:

Thursday, June 13, 2013

  Actual Average Record
Temperature  
Mean Temperature 44 °F -  
Max Temperature 51 °F 41 °F 51 °F (2000)
Min Temperature 37 °F 34 °F 30 °F (1998)
Degree Days  
Heating Degree Days 21    
Moisture  
Dew Point 35 °F    
Average Humidity 78    
Maximum Humidity 93    
Minimum Humidity 62    
Precipitation  
Precipitation 0.00 in - - ()
Sea Level Pressure  
Sea Level Pressure 30.00 in    
Wind  
Wind Speed 17 mph (NNE)    
Max Wind Speed 23 mph    
Max Gust Speed -    
Visibility 10 miles    
Events      
Averages and records for this station are not official NWS values.
T = Trace of Precipitation, MM = Missing Value Source: NWS Daily Summary

Daily Weather History Graph

Daily Weather History Graph

Search for Another Location

Airport or City:

Trip Planner

Search our weather history database for the weather conditions in past years. The results will help you decide how hot, cold, wet, or windy it might be!

Date:

Astronomy

Jun. 13, 2013 Rise Set
Actual Time 5:06 AM AKDT 1:48 AM AKDT
Civil Twilight Sun does not rise Sun does not rise
Nautical Twilight Sun does not rise Sun does not rise
Astronomical Twilight Sun does not rise Sun does not rise
Moon 11:55 AM AKDT (6/13) 2:38 AM AKDT (6/13)
Length of Visible Light 24h 00m
Length of Day
20h 42m
Waxing Crescent, 23% of the Moon is Illuminated
Jun 13
Waxing Crescent
Jun 16
First Quarter
Jun 23
Full
Jun 29
Last Quarter
Jul 7
New

Hourly Weather History & Observations

Time (AKDT) Temp. Windchill Dew Point Humidity Pressure Visibility Wind Dir Wind Speed Gust Speed Precip Events Conditions
12:16 AM 37.4 °F 28.5 °F 33.8 °F 87% 30.04 in 10.0 mi NNE 15.0 mph - N/A   Clear
12:36 AM 37.4 °F 28.9 °F 33.8 °F 87% 30.04 in 10.0 mi North 13.8 mph - N/A   Clear
12:56 AM 37.4 °F 28.5 °F 33.8 °F 87% 30.04 in 10.0 mi NNE 15.0 mph - N/A   Clear
1:16 AM 37.4 °F 27.5 °F 33.8 °F 87% 30.03 in 10.0 mi NNE 18.4 mph - N/A   Clear
1:36 AM 37.4 °F 28.2 °F 33.8 °F 87% 30.04 in 10.0 mi NNE 16.1 mph - N/A   Clear
1:56 AM 37.4 °F 28.5 °F 33.8 °F 87% 30.04 in 10.0 mi NNE 15.0 mph - N/A   Clear
2:16 AM 37.4 °F 28.2 °F 33.8 °F 87% 30.03 in 10.0 mi NNE 16.1 mph - N/A   Clear
2:36 AM 37.4 °F 28.2 °F 33.8 °F 87% 30.03 in 10.0 mi NNE 16.1 mph - N/A   Clear
2:56 AM 37.4 °F 27.8 °F 33.8 °F 87% 30.03 in 10.0 mi NNE 17.3 mph - N/A   Clear
3:16 AM 37.4 °F 27.2 °F 33.8 °F 87% 30.02 in 10.0 mi NNE 19.6 mph - N/A   Clear
3:36 AM 37.4 °F 26.6 °F 33.8 °F 87% 30.02 in 10.0 mi NNE 21.9 mph - N/A   Clear
3:56 AM 37.4 °F 27.5 °F 33.8 °F 87% 30.02 in 10.0 mi NNE 18.4 mph - N/A   Clear
4:16 AM 37.4 °F 27.8 °F 33.8 °F 87% 30.01 in 10.0 mi NNE 17.3 mph - N/A   Clear
4:36 AM 37.4 °F 27.8 °F 33.8 °F 87% 30.02 in 10.0 mi NNE 17.3 mph - N/A   Clear
4:56 AM 37.4 °F 27.8 °F 33.8 °F 87% 30.01 in 10.0 mi NNE 17.3 mph - N/A   Clear
5:16 AM 37.4 °F 27.8 °F 33.8 °F 87% 30.01 in 10.0 mi NNE 17.3 mph - N/A   Clear
5:36 AM 37.4 °F 27.5 °F 33.8 °F 87% 30.01 in 10.0 mi NNE 18.4 mph - N/A   Clear
5:56 AM 37.4 °F 27.2 °F 33.8 °F 87% 30.00 in 10.0 mi NNE 19.6 mph - N/A   Clear
6:16 AM 37.4 °F 26.9 °F 33.8 °F 87% 30.00 in 10.0 mi NNE 20.7 mph - N/A   Clear
6:36 AM 37.4 °F 26.9 °F 33.8 °F 87% 30.00 in 10.0 mi NNE 20.7 mph - N/A   Clear
6:56 AM 37.4 °F 27.2 °F 33.8 °F 87% 30.00 in 10.0 mi NE 19.6 mph - N/A   Clear
7:16 AM 37.4 °F 26.6 °F 33.8 °F 87% 30.00 in 10.0 mi NE 21.9 mph - N/A   Clear
7:36 AM 37.4 °F 26.9 °F 33.8 °F 87% 30.00 in 10.0 mi NE 20.7 mph - N/A   Clear
7:56 AM 37.4 °F 26.4 °F 33.8 °F 87% 30.00 in 10.0 mi NE 23.0 mph - N/A   Clear
8:16 AM 37.4 °F 26.6 °F 33.8 °F 87% 30.00 in 10.0 mi NNE 21.9 mph - N/A   Clear
8:36 AM 37.4 °F 26.9 °F 35.6 °F 93% 30.00 in 10.0 mi NNE 20.7 mph - N/A   Clear
8:56 AM 39.2 °F 29.6 °F 35.6 °F 87% 29.99 in 10.0 mi NNE 19.6 mph - N/A   Clear
9:16 AM 39.2 °F 29.3 °F 35.6 °F 87% 29.99 in 10.0 mi NNE 20.7 mph - N/A   Clear
9:36 AM 39.2 °F 29.3 °F 35.6 °F 87% 30.00 in 10.0 mi NNE 20.7 mph - N/A   Clear
9:56 AM 39.2 °F 29.3 °F 33.8 °F 81% 30.00 in 10.0 mi NE 20.7 mph - N/A   Clear
10:16 AM 39.2 °F 28.7 °F 33.8 °F 81% 29.99 in 10.0 mi NNE 23.0 mph - N/A   Clear
10:36 AM 39.2 °F 29.0 °F 33.8 °F 81% 29.99 in 10.0 mi NNE 21.9 mph - N/A   Clear
10:56 AM 39.2 °F 29.3 °F 33.8 °F 81% 30.00 in 10.0 mi NNE 20.7 mph - N/A   Clear
11:16 AM 39.2 °F 29.0 °F 33.8 °F 81% 30.00 in 10.0 mi NNE 21.9 mph - N/A   Clear
11:36 AM 39.2 °F 28.7 °F 33.8 °F 81% 30.00 in 10.0 mi NNE 23.0 mph - N/A   Clear
11:56 AM 41.0 °F 31.1 °F 33.8 °F 76% 29.99 in 10.0 mi NNE 23.0 mph - N/A   Clear
12:16 PM 42.8 °F 33.5 °F 33.8 °F 70% 29.99 in 10.0 mi NNE 23.0 mph - N/A   Clear
12:36 PM 42.8 °F 34.0 °F 33.8 °F 70% 30.00 in 10.0 mi NNE 20.7 mph - N/A   Clear
12:56 PM 42.8 °F 34.0 °F 33.8 °F 70% 30.00 in 10.0 mi NNE 20.7 mph - N/A   Clear
1:16 PM 42.8 °F 34.0 °F 33.8 °F 70% 30.00 in 10.0 mi NNE 20.7 mph - N/A   Clear
1:36 PM 42.8 °F 34.5 °F 33.8 °F 70% 30.00 in 10.0 mi NNE 18.4 mph - N/A   Clear
1:56 PM 41.0 °F 31.1 °F 33.8 °F 76% 29.99 in 10.0 mi NNE 23.0 mph - N/A   Clear
2:16 PM 41.0 °F 31.1 °F 33.8 °F 76% 29.99 in 10.0 mi NNE 23.0 mph - N/A   Clear
2:36 PM 41.0 °F 31.1 °F 33.8 °F 76% 29.99 in 10.0 mi NNE 23.0 mph - N/A   Clear
2:56 PM 42.8 °F 34.3 °F 33.8 °F 70% 30.00 in 10.0 mi NNE 19.6 mph - N/A   Clear
3:16 PM 42.8 °F 34.5 °F 33.8 °F 70% 30.00 in 10.0 mi NNE 18.4 mph - N/A   Clear
3:36 PM 42.8 °F 35.1 °F 33.8 °F 70% 30.01 in 10.0 mi NNE 16.1 mph - N/A   Clear
3:56 PM 42.8 °F 35.4 °F 33.8 °F 70% 30.01 in 10.0 mi NNE 15.0 mph - N/A   Clear
4:16 PM 42.8 °F 35.1 °F 33.8 °F 70% 30.00 in 10.0 mi NNE 16.1 mph - N/A   Clear
4:36 PM 42.8 °F 34.8 °F 33.8 °F 70% 30.00 in 10.0 mi NNE 17.3 mph - N/A   Clear
4:56 PM 44.6 °F 38.1 °F 33.8 °F 66% 30.00 in 10.0 mi North 13.8 mph - N/A   Clear
5:16 PM 44.6 °F 38.1 °F 33.8 °F 66% 30.00 in 10.0 mi North 13.8 mph - N/A   Clear
5:36 PM 44.6 °F 38.4 °F 35.6 °F 71% 30.01 in 10.0 mi NNE 12.7 mph - N/A   Clear
5:56 PM 44.6 °F 37.8 °F 35.6 °F 71% 30.00 in 10.0 mi NNE 15.0 mph - N/A   Clear
6:16 PM 44.6 °F 38.1 °F 35.6 °F 71% 30.00 in 10.0 mi NE 13.8 mph - N/A   Clear
6:36 PM 44.6 °F 38.8 °F 35.6 °F 71% 30.00 in 10.0 mi NNE 11.5 mph - N/A   Clear
6:56 PM 42.8 °F 37.0 °F 33.8 °F 70% 29.99 in 10.0 mi NNE 10.4 mph - N/A   Clear
7:16 PM 46.4 °F 41.5 °F 35.6 °F 66% 29.99 in 10.0 mi NE 10.4 mph - N/A   Clear
7:36 PM 48.2 °F - 35.6 °F 62% 29.99 in 10.0 mi North 4.6 mph - N/A   Clear
7:56 PM 51.8 °F - 39.2 °F 62% 29.99 in 10.0 mi NE 8.1 mph - N/A   Clear
8:16 PM 46.4 °F 40.7 °F 35.6 °F 66% 29.99 in 10.0 mi NE 12.7 mph - N/A   Clear
8:36 PM 44.6 °F 40.2 °F 35.6 °F 71% 29.99 in 10.0 mi NNE 8.1 mph - N/A   Clear
8:56 PM 44.6 °F 38.1 °F 33.8 °F 66% 29.99 in 10.0 mi NE 13.8 mph - N/A   Clear
9:16 PM 44.6 °F 38.4 °F 35.6 °F 71% 29.99 in 10.0 mi NE 12.7 mph - N/A   Clear
9:36 PM 46.4 °F 40.4 °F 35.6 °F 66% 29.99 in 10.0 mi NE 13.8 mph - N/A   Clear
9:56 PM 44.6 °F 39.2 °F 35.6 °F 71% 30.00 in 10.0 mi NE 10.4 mph - N/A   Scattered Clouds
10:16 PM 46.4 °F 42.9 °F 35.6 °F 66% 30.01 in 10.0 mi WNW 6.9 mph - N/A   Partly Cloudy
10:36 PM 44.6 °F 42.2 °F 37.4 °F 76% 30.01 in 10.0 mi WSW 4.6 mph - N/A   Partly Cloudy
10:56 PM 44.6 °F 41.4 °F 37.4 °F 76% 30.01 in 10.0 mi SSW 5.8 mph - N/A   Scattered Clouds
11:16 PM 44.6 °F 42.2 °F 37.4 °F 76% 30.01 in 10.0 mi South 4.6 mph - N/A   Mostly Cloudy
11:36 PM 44.6 °F 43.1 °F 37.4 °F 76% 30.01 in 10.0 mi SSW 3.5 mph - N/A   Overcast
11:56 PM 44.6 °F 42.2 °F 37.4 °F 76% 30.01 in 10.0 mi South 4.6 mph - N/A   Mostly Cloudy